Washington, LA (70589)

10:36 AM CDT on September 02, 2015 (GMT -0500)
Saint Landry Parish-Ahart | | Change Station
CLOSE
Current Station
Airport
Location: Opelousas St Landry Parish Ai,
Elevation: 75 ft
Nearby Weather Stations

Elev 75 ft 30.56 °N, 92.10 °W | Updated 21 minutes ago

Mostly Cloudy
Mostly Cloudy
81 °F
Feels Like 85 °F
N
0
Wind Variable Wind from North

Today
High -- | Low -- °F
--% Chance of Precip.
Yesterday
High -- | Low -- °F
Precip. -- in
6:45 AM 7:30 PM
Waning Gibbous, 79% visible
Pressure 30.07 in
Visibility 10.0 miles
Clouds Mostly Cloudy 9000 ft
Overcast 12000 ft
Heat Index 85 °F
Dew Point 73 °F
Humidity 77%
Rainfall 0.02 in
Snow Depth Not available.
UV 2 out of 12
Pollen 8.00 out of 12
Air Quality Not available.
Flu Activity Not available.
METAR KOPL 021515Z AUTO 00000KT 10SM BKN090 OVC120 27/23 A3007 RMK AO2 LTG DSNT S T02710227
Pressure 30.07 in
Visibility 10.0 miles
Clouds Mostly Cloudy 9000 ft
Overcast 12000 ft
Heat Index 85 °F
Dew Point 73 °F
Humidity 77%
Rainfall 0.02 in
Snow Depth Not available.
UV 2 out of 12
Pollen 8.00 out of 12
Air Quality Not available.
Flu Activity Not available.
METAR KOPL 021515Z AUTO 00000KT 10SM BKN090 OVC120 27/23 A3007 RMK AO2 LTG DSNT S T02710227

10-Day Weather Forecast

×

Almanac

Astronomy

Sep. 02, 2015 Rise Set
Actual Time
Civil Twilight
Nautical Twilight
Astronomical Twilight
Moon
Length of Visible Light
Length of Day
Tomorrow will be .
, % of the Moon is Illuminated

Today's Extremes

State Highs State Lows

Community

WunderPhotos

Upload Photos

1,851,773 photos uploaded!

WunderBlogs® & News

Nearby

Air Quality

  Air Quality AQ Index Pollutant
Not available.

Snow Depth

Station Depth Elevation

Earthquake Activity

City Distance Mag. Time & Date
Minimum magnitude displayed is 2.5.

Coastal Water Temperatures

Place Temperature

Stations

Nearby Weather Stations

Station Location Temp. Windchill Dew Point Humidity Wind Precip. Elev Updated Type